createdAt,value
2017-06-23T10:22:39.966Z,69.93
2017-06-23T10:23:50.986Z,70.12
2017-06-23T10:25:01.985Z,70.12
2017-06-23T10:26:13.989Z,69.48
2017-06-23T10:27:25.255Z,69.15
2017-06-23T10:28:36.249Z,68.6
2017-06-23T10:29:47.656Z,69.32
2017-06-23T10:30:59.303Z,68.35
2017-06-23T10:32:10.380Z,67.41
2017-06-23T10:33:21.397Z,66.56
2017-06-23T10:34:33.539Z,65.98
2017-06-23T10:35:44.594Z,65.53
2017-06-23T10:36:55.656Z,65.14
2017-06-23T10:38:06.662Z,65.33
2017-06-23T10:39:17.675Z,65.46
2017-06-23T10:40:28.717Z,65.46
2017-06-23T10:41:39.956Z,64.69
2017-06-23T10:42:51.011Z,65.33
2017-06-23T10:44:02.022Z,66.17
2017-06-23T10:45:13.227Z,67.15
2017-06-23T10:46:24.228Z,67.25
2017-06-23T10:47:35.436Z,66.83
2017-06-23T10:48:46.485Z,66.93
2017-06-23T10:49:57.522Z,66.34
2017-06-23T10:51:08.526Z,66.05
2017-06-23T10:52:20.549Z,67.05
2017-06-23T10:53:33.575Z,66.14
2017-06-23T10:54:47.036Z,66.93
2017-06-23T10:55:59.790Z,66.08
2017-06-23T10:57:12.085Z,66.63
2017-06-23T10:58:23.088Z,66.44
2017-06-23T10:59:34.860Z,66.47
2017-06-23T11:00:47.130Z,66.96
2017-06-23T11:01:58.158Z,65.59
2017-06-23T11:03:09.166Z,66.08
2017-06-23T11:04:20.383Z,66.02
2017-06-23T11:05:31.832Z,65.59
2017-06-23T11:06:42.831Z,65.98
2017-06-23T11:07:53.833Z,66.11
2017-06-23T11:09:04.832Z,64.94
2017-06-23T11:10:16.497Z,63.71
2017-06-23T11:11:28.341Z,64.49
2017-06-23T11:12:39.782Z,64
2017-06-23T11:13:51.215Z,64.23
2017-06-23T11:15:02.516Z,64.03
2017-06-23T11:16:13.902Z,64.13
2017-06-23T11:17:24.975Z,63.9
2017-06-23T11:18:37.107Z,64.59
2017-06-23T11:19:48.361Z,64.55
2017-06-23T11:20:59.527Z,64.75
2017-06-23T11:22:13.076Z,65.43
2017-06-23T11:23:26.713Z,64.72
2017-06-23T11:24:38.503Z,65.11
2017-06-23T11:25:49.955Z,66.17
2017-06-23T11:27:00.972Z,66.56
2017-06-23T11:28:12.024Z,67.02
2017-06-23T11:29:23.229Z,66.83
2017-06-23T11:30:34.227Z,67.11
2017-06-23T11:31:45.421Z,67.21
2017-06-23T11:32:56.825Z,67.57
2017-06-23T11:34:07.886Z,67.96
2017-06-23T11:35:18.976Z,67.47
2017-06-23T11:36:29.986Z,68.05
2017-06-23T11:37:40.984Z,68.25
2017-06-23T11:38:51.985Z,68.35
2017-06-23T11:40:03.036Z,67.96
2017-06-23T11:41:14.032Z,67.18
2017-06-23T11:42:28.086Z,67.02
2017-06-23T11:43:39.542Z,67.5
2017-06-23T11:44:50.754Z,66.93
2017-06-23T11:46:02.008Z,66.73
2017-06-23T11:47:13.050Z,66.5
2017-06-23T11:48:24.741Z,66.31
2017-06-23T11:49:36.161Z,67.57
2017-06-23T11:50:47.156Z,67.08
2017-06-23T11:51:59.310Z,67.18
2017-06-23T11:53:12.208Z,66.79
2017-06-23T11:54:23.625Z,66.89
2017-06-23T11:55:34.652Z,66.05
2017-06-23T11:56:45.717Z,65.4
2017-06-23T11:57:58.063Z,65.04
2017-06-23T11:59:09.067Z,64.49
2017-06-23T12:00:20.140Z,63.61
2017-06-23T12:01:31.146Z,63.06
2017-06-23T12:02:42.149Z,63.35
2017-06-23T12:03:53.478Z,63.15
2017-06-23T12:05:04.492Z,63.06
2017-06-23T12:06:15.743Z,62.6
2017-06-23T12:07:28.081Z,62.5
2017-06-23T12:08:39.082Z,62.6
2017-06-23T12:09:50.184Z,62.31
2017-06-23T12:11:02.176Z,62.41
2017-06-23T12:12:15.257Z,62.5
2017-06-23T12:13:27.210Z,62.21
2017-06-23T12:14:38.410Z,62.12
2017-06-23T12:15:49.529Z,62.47
2017-06-23T12:17:00.738Z,63.45
2017-06-23T12:18:11.741Z,63.06
2017-06-23T12:19:22.919Z,63.51
2017-06-23T12:20:35.657Z,64.1
2017-06-23T12:21:51.193Z,64.39
2017-06-23T12:23:04.824Z,63.9
2017-06-23T12:24:15.902Z,63.61
2017-06-23T12:25:28.063Z,63.61
2017-06-23T12:26:42.779Z,63.74
2017-06-23T12:27:54.140Z,61.79
2017-06-23T12:29:05.338Z,62.02
2017-06-23T12:30:16.336Z,62.41
2017-06-23T12:31:27.362Z,62.12
2017-06-23T12:32:38.854Z,62.6
2017-06-23T12:33:49.924Z,62.21
2017-06-23T12:35:01.127Z,62.41
2017-06-23T12:36:12.179Z,63.25
2017-06-23T12:37:23.201Z,63.06
2017-06-23T12:38:34.564Z,63.35
2017-06-23T12:39:45.565Z,63.25
2017-06-23T12:40:56.584Z,63.81
2017-06-23T12:42:07.789Z,63.71
2017-06-23T12:43:19.011Z,64.59
2017-06-23T12:44:30.054Z,64.84
2017-06-23T12:45:41.064Z,65.23
2017-06-23T12:46:52.059Z,65.33
2017-06-23T12:48:03.070Z,65.14
2017-06-23T12:49:16.843Z,64.94
2017-06-23T12:50:27.857Z,65.33
2017-06-23T12:51:38.856Z,65.53
2017-06-23T12:52:49.903Z,65.33
2017-06-23T12:54:00.901Z,65.53
2017-06-23T12:55:11.952Z,65.04
2017-06-23T12:56:22.946Z,65.53
2017-06-23T12:57:33.963Z,65.92
2017-06-23T12:58:45.368Z,65.92
2017-06-23T12:59:58.580Z,65.82
2017-06-23T13:01:12.339Z,65.92
2017-06-23T13:02:23.406Z,66.11
2017-06-23T13:03:34.406Z,65.92
2017-06-23T13:04:46.349Z,65.82
2017-06-23T13:05:57.677Z,66.02
2017-06-23T13:07:08.991Z,66.02
2017-06-23T13:08:23.661Z,65.92
2017-06-23T13:09:37.762Z,66.02
2017-06-23T13:10:48.846Z,65.75
2017-06-23T13:12:00.386Z,65.46
2017-06-23T13:13:14.383Z,64.59
2017-06-23T13:14:28.138Z,64.39
2017-06-23T13:15:42.229Z,64.2
2017-06-23T13:16:54.016Z,64.49
2017-06-23T13:18:06.221Z,64.32
2017-06-23T13:19:17.424Z,64.23
2017-06-23T13:20:28.426Z,63.81
2017-06-23T13:21:39.437Z,64.49
2017-06-23T13:22:50.452Z,64.1
2017-06-23T13:24:01.939Z,64.39
2017-06-23T13:25:13.029Z,63.45
2017-06-23T13:26:24.137Z,64.49
2017-06-23T13:27:35.144Z,64.49
2017-06-23T13:28:46.143Z,64
2017-06-23T13:29:57.208Z,64.29
2017-06-23T13:31:09.147Z,64.2
2017-06-23T13:32:21.913Z,64.36
2017-06-23T13:33:32.925Z,64.78
2017-06-23T13:34:45.494Z,64.49
2017-06-23T13:36:00.678Z,64.39
2017-06-23T13:37:11.685Z,64.49
2017-06-23T13:38:22.737Z,64.39
2017-06-23T13:39:33.737Z,63.71
2017-06-23T13:40:44.967Z,64.42
2017-06-23T13:42:00.486Z,64.52
2017-06-23T13:43:14.073Z,64.49
2017-06-23T13:44:28.278Z,64.59
2017-06-23T13:45:42.117Z,64.78
2017-06-23T13:46:54.419Z,64.97
2017-06-23T13:48:06.392Z,66.05
2017-06-23T13:49:18.525Z,65.46
2017-06-23T13:50:29.633Z,65.26
2017-06-23T13:51:40.692Z,64.39
2017-06-23T13:52:51.702Z,65.33
2017-06-23T13:54:02.711Z,64.55
2017-06-23T13:55:13.743Z,64.36
2017-06-23T13:56:24.744Z,64.55
2017-06-23T13:57:36.671Z,64.45
2017-06-23T13:58:50.045Z,64.55
2017-06-23T14:00:01.113Z,64.36
2017-06-23T14:01:12.111Z,64.75
2017-06-23T14:02:23.158Z,64.07
2017-06-23T14:03:34.692Z,64.36
2017-06-23T14:04:46.491Z,64.55
2017-06-23T14:05:57.515Z,64.36
2017-06-23T14:07:08.991Z,64.17
2017-06-23T14:08:20.013Z,64.45
2017-06-23T14:09:31.267Z,64.17
2017-06-23T14:10:42.546Z,64.26
2017-06-23T14:11:53.742Z,64.17
2017-06-23T14:13:05.361Z,64.65
2017-06-23T14:14:17.825Z,64.52
2017-06-23T14:15:30.045Z,64.72
2017-06-23T14:16:41.269Z,64.07
2017-06-23T14:17:52.263Z,64.36
2017-06-23T14:19:03.482Z,64.26
2017-06-23T14:20:14.550Z,64.42
2017-06-23T14:21:26.100Z,64.45
2017-06-23T14:22:37.930Z,64.17
2017-06-23T14:23:49.464Z,64.07
2017-06-23T14:25:00.855Z,63.68
2017-06-23T14:26:11.858Z,63.75
2017-06-23T14:27:22.912Z,64.13
2017-06-23T14:28:33.925Z,64.32
2017-06-23T14:29:45.132Z,64.62
2017-06-23T14:30:56.127Z,64.42
2017-06-23T14:32:08.611Z,64.52
2017-06-23T14:33:22.539Z,64.32
2017-06-23T14:34:33.547Z,65.01
2017-06-23T14:35:44.544Z,64.32
2017-06-23T14:36:55.548Z,64.17
2017-06-23T14:38:06.588Z,64.36
2017-06-23T14:39:17.755Z,64.26
2017-06-23T14:40:28.753Z,64.36
2017-06-23T14:41:39.960Z,63.87
2017-06-23T14:42:51.160Z,63.87
2017-06-23T14:44:02.154Z,64.55
2017-06-23T14:45:15.652Z,63.12
2017-06-23T14:46:28.724Z,63.02
2017-06-23T14:47:39.731Z,63.12
2017-06-23T14:48:50.928Z,62.83
2017-06-23T14:50:01.926Z,63.32
2017-06-23T14:51:12.975Z,63.35
2017-06-23T14:52:23.972Z,62.47
2017-06-23T14:53:34.975Z,62.38
2017-06-23T14:54:45.966Z,62.47
2017-06-23T14:55:57.226Z,62.57
2017-06-23T14:57:09.027Z,63.02
2017-06-23T14:58:20.029Z,63.71
2017-06-23T14:59:31.017Z,63.32
2017-06-23T15:00:42.018Z,62.99
2017-06-23T15:01:54.120Z,63.68
2017-06-23T15:03:05.573Z,63.78
2017-06-23T15:04:18.545Z,63.68
2017-06-23T15:05:30.576Z,63.51
2017-06-23T15:06:41.573Z,63.02
2017-06-23T15:07:52.575Z,63.12
2017-06-23T15:09:03.618Z,62.83
2017-06-23T15:10:14.622Z,62.25
2017-06-23T15:11:25.619Z,63.22
2017-06-23T15:12:36.623Z,63.02
2017-06-23T15:13:47.619Z,63.58
2017-06-23T15:14:58.682Z,63.29
2017-06-23T15:16:09.839Z,64.36
2017-06-23T15:17:20.848Z,63.97
2017-06-23T15:18:31.848Z,64.32
2017-06-23T15:19:42.921Z,64.36
2017-06-23T15:20:53.998Z,64.32
2017-06-23T15:22:05.003Z,64.32
2017-06-23T15:23:16.002Z,64.17
2017-06-23T15:24:26.992Z,63.87
2017-06-23T15:25:38.050Z,63.48
2017-06-23T15:26:49.271Z,64.36
2017-06-23T15:28:00.260Z,64.17
2017-06-23T15:29:11.259Z,64.32
2017-06-23T15:30:22.262Z,64.45
2017-06-23T15:31:33.313Z,64.13
2017-06-23T15:32:45.333Z,64.13
2017-06-23T15:33:56.535Z,63.68
2017-06-23T15:35:07.536Z,64.36
2017-06-23T15:36:18.532Z,64.13
2017-06-23T15:37:29.582Z,64.36
2017-06-23T15:38:40.585Z,64.42
2017-06-23T15:39:51.614Z,64.42
2017-06-23T15:41:02.634Z,64.42
2017-06-23T15:42:13.640Z,64.42
2017-06-23T15:43:24.693Z,64.62
2017-06-23T15:44:35.688Z,64.42
2017-06-23T15:45:46.681Z,65.46
2017-06-23T15:46:57.674Z,65.37
2017-06-23T15:48:08.670Z,65.11
2017-06-23T15:49:19.924Z,65.11
2017-06-23T15:50:30.919Z,64.52
2017-06-23T15:51:41.919Z,64.72
2017-06-23T15:52:52.923Z,64.72
2017-06-23T15:54:05.962Z,65.5
2017-06-23T15:55:17.036Z,65.2
2017-06-23T15:56:28.443Z,65.2
2017-06-23T15:57:41.973Z,64.72
2017-06-23T15:58:52.977Z,64.78
2017-06-23T16:00:04.632Z,64.88
2017-06-23T16:01:15.674Z,64.69
2017-06-23T16:02:26.665Z,64.39
2017-06-23T16:03:37.866Z,64.39
2017-06-23T16:04:51.732Z,65.08
2017-06-23T16:06:02.737Z,65.27
2017-06-23T16:07:13.773Z,65.08
2017-06-23T16:08:24.765Z,65.08
2017-06-23T16:09:35.764Z,64.42
2017-06-23T16:10:46.752Z,65.37
2017-06-23T16:11:57.748Z,65.17
2017-06-23T16:13:08.792Z,64.42
2017-06-23T16:14:20.009Z,64.23
2017-06-23T16:15:31.042Z,64.23
2017-06-23T16:16:42.060Z,64.52
2017-06-23T16:17:53.466Z,64.72
2017-06-23T16:19:04.509Z,64.29
2017-06-23T16:20:15.905Z,64.39
2017-06-23T16:21:28.334Z,65.08
2017-06-23T16:22:40.166Z,65.17
2017-06-23T16:23:51.173Z,65.33
2017-06-23T16:25:02.216Z,64.26
2017-06-23T16:26:13.219Z,65.33
2017-06-23T16:27:24.213Z,64.56
2017-06-23T16:28:35.217Z,65.63
2017-06-23T16:29:46.215Z,65.14
2017-06-23T16:30:57.239Z,65.82
2017-06-23T16:32:08.238Z,65.69
2017-06-23T16:33:20.114Z,65.98
2017-06-23T16:34:31.113Z,65.89
2017-06-23T16:35:42.169Z,65.59
2017-06-23T16:36:53.171Z,65.89
2017-06-23T16:38:04.164Z,65.69
2017-06-23T16:39:15.156Z,65.59
2017-06-23T16:40:26.354Z,65.59
2017-06-23T16:41:37.394Z,65.14
2017-06-23T16:42:48.412Z,65.59
2017-06-23T16:44:01.115Z,65.59
2017-06-23T16:45:12.429Z,66.02
2017-06-23T16:46:23.429Z,65.69
2017-06-23T16:47:34.677Z,66.47
2017-06-23T16:48:45.869Z,66.56
2017-06-23T16:49:56.862Z,65.82
2017-06-23T16:51:08.276Z,66.02
2017-06-23T16:52:19.529Z,65.23
2017-06-23T16:53:30.773Z,65.82
2017-06-23T16:54:41.781Z,65.2
2017-06-23T16:55:54.135Z,65.59
2017-06-23T16:57:06.876Z,65.69
2017-06-23T16:58:17.880Z,66.08
2017-06-23T16:59:30.696Z,65.89
2017-06-23T17:00:41.690Z,65.5
2017-06-23T17:01:54.310Z,65.79
2017-06-23T17:03:09.350Z,66.92
2017-06-23T17:04:21.395Z,66.66
2017-06-23T17:05:32.441Z,66.86
2017-06-23T17:06:44.958Z,66.37
2017-06-23T17:07:55.981Z,66.17
2017-06-23T17:09:06.976Z,66.08
2017-06-23T17:10:18.239Z,65.89
2017-06-23T17:11:29.724Z,66.44
2017-06-23T17:12:40.983Z,66.53
2017-06-23T17:13:52.497Z,66.96
2017-06-23T17:15:03.924Z,66.72
2017-06-23T17:16:15.265Z,66.72
2017-06-23T17:17:26.791Z,66.92
2017-06-23T17:18:38.273Z,67.6
2017-06-23T17:19:49.688Z,66.92
2017-06-23T17:21:01.367Z,67.99
2017-06-23T17:22:12.733Z,67.7
2017-06-23T17:23:24.345Z,67.89
2017-06-23T17:24:36.157Z,68.08
2017-06-23T17:25:47.666Z,68.15
2017-06-23T17:26:59.228Z,68.25
2017-06-23T17:28:10.736Z,68.54
2017-06-23T17:29:22.189Z,67.76
2017-06-23T17:30:33.690Z,67.66
2017-06-23T17:31:45.181Z,68.83
2017-06-23T17:32:56.647Z,68.25
2017-06-23T17:34:07.651Z,68.35
2017-06-23T17:35:18.691Z,69.12
2017-06-23T17:36:29.687Z,68.44
2017-06-23T17:37:40.703Z,68.05
2017-06-23T17:38:51.774Z,68.44
2017-06-23T17:40:02.788Z,67.76
2017-06-23T17:41:13.813Z,68.15
2017-06-23T17:42:25.827Z,68.15
2017-06-23T17:43:37.089Z,68.25
2017-06-23T17:44:48.190Z,68.54
2017-06-23T17:45:59.437Z,68.15
2017-06-23T17:47:10.441Z,68.73
2017-06-23T17:48:21.507Z,68.83
2017-06-23T17:49:32.512Z,68.54
2017-06-23T17:50:43.776Z,68.93
2017-06-23T17:51:55.003Z,68.93
2017-06-23T17:53:06.008Z,68.83
2017-06-23T17:54:17.039Z,69.02
2017-06-23T17:55:28.099Z,69.6
2017-06-23T17:56:40.442Z,69.7
2017-06-23T17:57:51.873Z,69.32
2017-06-23T17:59:02.879Z,69.41
2017-06-23T18:00:13.892Z,69.67
2017-06-23T18:01:27.540Z,69.96
2017-06-23T18:02:38.547Z,69.96
2017-06-23T18:03:49.555Z,69.96
2017-06-23T18:05:00.562Z,70.35
2017-06-23T18:06:11.566Z,70.45
2017-06-23T18:07:22.643Z,70.35
2017-06-23T18:08:33.651Z,70.45
2017-06-23T18:09:44.672Z,70.54
2017-06-23T18:10:55.682Z,71.03
2017-06-23T18:12:06.959Z,70.93
2017-06-23T18:13:18.024Z,70.9
2017-06-23T18:14:29.024Z,71.28
2017-06-23T18:15:40.038Z,71.77
2017-06-23T18:16:51.260Z,71.48
2017-06-23T18:18:02.264Z,71.09
2017-06-23T18:19:13.325Z,71.73
2017-06-23T18:20:24.340Z,70.96
2017-06-23T18:21:35.396Z,71.15
2017-06-23T18:22:46.604Z,70.76
2017-06-23T18:23:57.619Z,70.96
2017-06-23T18:25:08.885Z,71.73
2017-06-23T18:26:20.038Z,71.25
2017-06-23T18:27:31.265Z,70.86
2017-06-23T18:28:42.262Z,71.64
2017-06-23T18:29:53.271Z,71.25
2017-06-23T18:31:04.323Z,71.54
2017-06-23T18:32:15.335Z,71.54
2017-06-23T18:33:26.334Z,71.73
2017-06-23T18:34:37.349Z,71.89
2017-06-23T18:35:48.350Z,71.83
2017-06-23T18:36:59.404Z,72.28
2017-06-23T18:38:10.489Z,72.86
2017-06-23T18:39:21.491Z,72.09
2017-06-23T18:40:32.501Z,72.73
2017-06-23T18:41:43.521Z,72.83
2017-06-23T18:42:54.588Z,72.53
2017-06-23T18:44:05.592Z,72.92
2017-06-23T18:45:16.993Z,73.02
2017-06-23T18:46:27.994Z,72.83
2017-06-23T18:47:39.205Z,73.69
2017-06-23T18:48:50.485Z,73.41
2017-06-23T18:50:01.489Z,73.5
2017-06-23T18:51:12.498Z,73.89
2017-06-23T18:52:23.543Z,73.41
2017-06-23T18:53:34.632Z,73.85
2017-06-23T18:54:45.696Z,73.75
2017-06-23T18:55:56.713Z,73.75
2017-06-23T18:57:09.170Z,73.75
2017-06-23T18:58:20.224Z,72.79
2017-06-23T18:59:31.233Z,73.75
2017-06-23T19:00:42.281Z,74.24
2017-06-23T19:01:53.295Z,73.37
2017-06-23T19:03:05.225Z,73.27
2017-06-23T19:04:16.463Z,73.33
2017-06-23T19:05:27.537Z,73.43
2017-06-23T19:06:38.550Z,72.95
2017-06-23T19:07:49.767Z,73.33
2017-06-23T19:09:01.094Z,73.04
2017-06-23T19:10:12.737Z,73.33
2017-06-23T19:11:24.530Z,73.24
2017-06-23T19:12:36.832Z,73.63
2017-06-23T19:13:47.862Z,73.53
2017-06-23T19:15:00.009Z,73.14
2017-06-23T19:16:14.983Z,72.66
2017-06-23T19:17:26.027Z,72.36
2017-06-23T19:18:37.738Z,72.08
2017-06-23T19:19:51.771Z,72.46
2017-06-23T19:21:03.182Z,73.2
2017-06-23T19:22:25.816Z,72.33
2017-06-23T19:23:59.824Z,73.59
2017-06-23T19:25:18.418Z,73.01
2017-06-23T19:26:57.015Z,73.68
2017-06-23T19:28:42.233Z,73.94
2017-06-23T19:30:11.177Z,74.42
2017-06-23T19:31:24.221Z,74.32
2017-06-23T19:32:35.271Z,74.52
2017-06-23T19:33:47.621Z,73.84
2017-06-23T19:34:58.856Z,74.23
2017-06-23T19:36:10.050Z,74.62
2017-06-23T19:37:21.037Z,74.48
2017-06-23T19:38:32.078Z,74.19
2017-06-23T19:39:43.076Z,73.9
2017-06-23T19:40:54.063Z,73.52
2017-06-23T19:42:05.520Z,74.19
2017-06-23T19:43:17.482Z,74.1
2017-06-23T19:44:29.543Z,74.87
2017-06-23T19:45:40.533Z,74.68
2017-06-23T19:46:54.327Z,74.77
2017-06-23T19:48:05.839Z,74.1
2017-06-23T19:49:17.039Z,74.87
2017-06-23T19:50:28.030Z,74.19
2017-06-23T19:51:51.373Z,74.29
2017-06-23T19:53:23.666Z,74.19
2017-06-23T19:54:43.584Z,74.25
2017-06-23T19:56:26.417Z,74.77
2017-06-23T19:57:58.137Z,74.64
2017-06-23T19:59:12.512Z,74.73
2017-06-23T20:00:23.769Z,74.73
2017-06-23T20:01:35.844Z,74.35
2017-06-23T20:02:56.620Z,74.83
2017-06-23T20:04:21.424Z,75.22
2017-06-23T20:05:55.210Z,75.41
2017-06-23T20:07:30.113Z,75.67
2017-06-23T20:08:50.994Z,75.57
2017-06-23T20:10:21.066Z,76.05
2017-06-23T20:11:52.900Z,75.67
2017-06-23T20:13:29.744Z,75.57
2017-06-23T20:14:54.878Z,75.67
2017-06-23T20:16:06.076Z,76.15
2017-06-23T20:17:17.112Z,76.05
2017-06-23T20:18:28.105Z,76.15
2017-06-23T20:19:39.307Z,75.95
2017-06-23T20:20:50.320Z,76.53
2017-06-23T20:22:01.317Z,76.15
2017-06-23T20:23:12.587Z,76.34
2017-06-23T20:24:23.766Z,76.34
2017-06-23T20:25:34.770Z,76.05
2017-06-23T20:26:45.952Z,76.63
2017-06-23T20:27:56.941Z,77.21
2017-06-23T20:29:08.390Z,76.24
2017-06-23T20:30:19.393Z,76.34
2017-06-23T20:31:30.380Z,76.92
2017-06-23T20:32:42.699Z,76.34
2017-06-23T20:33:56.829Z,76.63
2017-06-23T20:35:07.871Z,75.95
2017-06-23T20:36:19.647Z,76.15
2017-06-23T20:37:31.297Z,76.72
2017-06-23T20:38:42.322Z,76.63
2017-06-23T20:39:53.512Z,76.72
2017-06-23T20:41:04.549Z,77.01
2017-06-23T20:42:15.537Z,77.3
2017-06-23T20:43:26.535Z,77.4
2017-06-23T20:44:37.764Z,77.69
2017-06-23T20:45:48.756Z,78.08
2017-06-23T20:46:59.805Z,77.21
2017-06-23T20:48:10.993Z,76.63
2017-06-23T20:49:21.983Z,76.92
2017-06-23T20:50:32.998Z,77.78
2017-06-23T20:51:43.986Z,77.59
2017-06-23T20:52:57.889Z,77.98
2017-06-23T20:54:10.721Z,77.01
2017-06-23T20:55:21.707Z,77.21
2017-06-23T20:56:32.699Z,78.17
2017-06-23T20:57:43.687Z,77.88
2017-06-23T20:58:54.735Z,77.98
2017-06-23T21:00:05.737Z,76.92
2017-06-23T21:01:16.732Z,77.01
2017-06-23T21:02:27.716Z,79.14
2017-06-23T21:03:38.709Z,77.21
2017-06-23T21:04:49.947Z,78.08
2017-06-23T21:06:00.942Z,78.46
2017-06-23T21:07:11.940Z,79.62
2017-06-23T21:08:23.127Z,79.04
2017-06-23T21:09:34.147Z,78.13
2017-06-23T21:10:45.137Z,77.5
2017-06-23T21:11:56.130Z,77.98
2017-06-23T21:13:07.323Z,77.3
2017-06-23T21:14:18.522Z,77.5
2017-06-23T21:15:29.568Z,77.5
2017-06-23T21:16:40.690Z,77.98
2017-06-23T21:17:51.682Z,77.5
2017-06-23T21:19:02.676Z,77.88
2017-06-23T21:20:13.660Z,79.14
2017-06-23T21:21:24.711Z,79.14
2017-06-23T21:22:35.698Z,79.58
2017-06-23T21:23:46.688Z,77.78
2017-06-23T21:24:57.679Z,78.13
2017-06-23T21:26:08.689Z,77.84
2017-06-23T21:27:19.731Z,77.36
2017-06-23T21:28:30.740Z,78.42
2017-06-23T21:29:41.747Z,77.75
2017-06-23T21:30:52.741Z,80.16
2017-06-23T21:32:04.325Z,80.16
2017-06-23T21:33:17.951Z,80.16
2017-06-23T21:34:28.939Z,79.58
2017-06-23T21:35:39.931Z,79.49
2017-06-23T21:36:51.124Z,79.1
2017-06-23T21:38:02.118Z,79
2017-06-23T21:39:13.160Z,79
2017-06-23T21:40:24.146Z,77.65
2017-06-23T21:41:35.141Z,81.12
2017-06-23T21:42:46.131Z,80.26
2017-06-23T21:43:57.129Z,77.94
2017-06-23T21:45:11.620Z,80.64
2017-06-23T21:46:22.603Z,79.87
2017-06-23T21:47:33.584Z,80.16
2017-06-23T21:48:44.575Z,80.06
2017-06-23T21:49:55.559Z,80.54
2017-06-23T21:51:06.601Z,79.1
2017-06-23T21:52:17.603Z,79.39
2017-06-23T21:53:28.590Z,80.35
2017-06-23T21:54:39.582Z,79.39
2017-06-23T21:55:50.586Z,77.84
2017-06-23T21:57:01.844Z,78.33
2017-06-23T21:58:12.829Z,80.16
2017-06-23T21:59:23.810Z,78.96
2017-06-23T22:00:34.997Z,78.52
2017-06-23T22:01:46.186Z,78.19
2017-06-23T22:02:57.256Z,79.25
2017-06-23T22:04:08.880Z,79.49
2017-06-23T22:05:19.873Z,79.16
2017-06-23T22:06:30.859Z,77.9
2017-06-23T22:07:42.611Z,78.77
2017-06-23T22:08:54.993Z,79.54
2017-06-23T22:10:06.002Z,79.06
2017-06-23T22:11:16.989Z,80.89
2017-06-23T22:12:27.982Z,79.93
2017-06-23T22:13:38.974Z,79.06
2017-06-23T22:14:50.015Z,80.6
2017-06-23T22:16:00.993Z,78.77
2017-06-23T22:17:11.972Z,78.77
2017-06-23T22:18:22.963Z,78.77
2017-06-23T22:19:34.149Z,78.77
2017-06-23T22:20:45.138Z,79.06
2017-06-23T22:21:56.337Z,80.12
2017-06-23T22:23:07.331Z,79.54
2017-06-23T22:24:18.328Z,78.77
2017-06-23T22:25:29.569Z,78.96
2017-06-23T22:26:40.549Z,78.77
2017-06-23T22:27:51.549Z,78.67
2017-06-23T22:29:02.536Z,78.96
2017-06-23T22:30:13.525Z,79.06
2017-06-23T22:31:24.967Z,78.58
2017-06-23T22:32:35.954Z,79.06
2017-06-23T22:33:46.951Z,78.77
2017-06-23T22:34:57.939Z,78.96
2017-06-23T22:36:08.929Z,78.48
2017-06-23T22:37:20.367Z,78.77
2017-06-23T22:38:31.357Z,78.86
2017-06-23T22:39:42.348Z,78.67
2017-06-23T22:40:53.355Z,78.09
2017-06-23T22:42:04.349Z,78.58
2017-06-23T22:43:15.387Z,78.29
2017-06-23T22:44:26.585Z,78.67
2017-06-23T22:45:37.572Z,78.09
2017-06-23T22:46:48.562Z,78.09
2017-06-23T22:47:59.559Z,78.19
2017-06-23T22:49:10.597Z,78.19
2017-06-23T22:50:21.590Z,77.9
2017-06-23T22:51:32.582Z,78.29
2017-06-23T22:52:43.767Z,78.96
2017-06-23T22:53:54.957Z,78.86
2017-06-23T22:55:05.991Z,78
2017-06-23T22:56:16.989Z,77.9
2017-06-23T22:57:28.002Z,77.81
2017-06-23T22:58:39.028Z,77.71
2017-06-23T22:59:50.231Z,77.81
2017-06-23T23:01:01.277Z,77.13
2017-06-23T23:02:12.257Z,77.61
2017-06-23T23:03:23.248Z,77.71
2017-06-23T23:04:34.451Z,78.38
2017-06-23T23:05:45.642Z,77.42
2017-06-23T23:06:56.689Z,77.61
2017-06-23T23:08:07.680Z,77.76
2017-06-23T23:09:18.663Z,78.38
2017-06-23T23:10:29.851Z,77.42
2017-06-23T23:11:40.847Z,78.29
2017-06-23T23:12:51.887Z,78.48
2017-06-23T23:14:02.880Z,79.21
2017-06-23T23:15:13.864Z,79.11
2017-06-23T23:16:24.856Z,79.6
2017-06-23T23:17:35.847Z,80.08
2017-06-23T23:18:46.889Z,79.11
2017-06-23T23:19:57.868Z,79.21
2017-06-23T23:21:09.060Z,78.63
2017-06-23T23:22:20.091Z,77.86
2017-06-23T23:23:31.283Z,78.92
2017-06-23T23:24:42.316Z,79.5
2017-06-23T23:25:53.304Z,78.73
2017-06-23T23:27:04.292Z,77.96
2017-06-23T23:28:15.286Z,80.27
2017-06-23T23:29:26.276Z,79.02
2017-06-23T23:30:37.269Z,79.02
2017-06-23T23:31:48.459Z,79.02
2017-06-23T23:32:59.654Z,78.83
2017-06-23T23:34:10.846Z,80.27
2017-06-23T23:35:21.891Z,80.08
2017-06-23T23:36:32.878Z,80.56
2017-06-23T23:37:43.859Z,79.89
2017-06-23T23:38:54.841Z,81.43
2017-06-23T23:40:05.831Z,79.98
2017-06-23T23:41:17.072Z,79.11
2017-06-23T23:42:28.066Z,80.08
2017-06-23T23:43:39.058Z,80.27
2017-06-23T23:44:50.245Z,79.98
2017-06-23T23:46:01.247Z,79.41
2017-06-23T23:47:12.485Z,79.02
2017-06-23T23:48:23.476Z,80.85
2017-06-23T23:49:34.465Z,80.46
2017-06-23T23:50:45.661Z,80.46
2017-06-23T23:51:56.648Z,80.37
2017-06-23T23:53:07.884Z,80.08
2017-06-23T23:54:18.881Z,79.69
2017-06-23T23:55:29.876Z,80.27
2017-06-23T23:56:40.874Z,79.6
2017-06-23T23:57:52.064Z,80.37
2017-06-23T23:59:03.111Z,80.18
